WetterOnline ( https://www.wetteronline.de )

Wetter aktuell Warburg

Aktuelles Wetter: Warburg (237m)

6-stündlich | Neueste Meldungen
Ortszeit Temperatur Wetter
Mo, 22.04. 14:00 20.5° C leicht bewölkt
Mo, 22.04. 8:00 7.0° C wolkenlos
Mo, 22.04. 2:00 7.1° C wolkenlos
So, 21.04. 20:00 16.5° C wolkenlos
So, 21.04. 14:00 20.1° C wolkenlos
So, 21.04. 8:00 5.0° C wolkenlos
So, 21.04. 2:00 6.3° C wolkig
Sa, 20.04. 20:00 16.5° C wolkenlos
Ortszeit Temperatur Wetter
Mo, 22.04. 16:00 20.2° C leicht bewölkt
Mo, 22.04. 15:50 20.2° C wolkig
Mo, 22.04. 15:40 20.3° C wolkig
Mo, 22.04. 15:30 20.3° C wolkig
Mo, 22.04. 15:20 20.3° C wolkig
Mo, 22.04. 15:10 20.2° C wolkig
Mo, 22.04. 15:00 20.5° C leicht bewölkt
Mo, 22.04. 14:30 20.4° C leicht bewölkt
Mo, 22.04. 14:00 20.5° C leicht bewölkt
Mo, 22.04. 13:30 19.7° C leicht bewölkt
Mo, 22.04. 13:00 19.8° C leicht bewölkt
Ortszeit Relative Feuchte Sichtweite
Mo, 22.04. 14:00 37% 25 km
Mo, 22.04. 8:00 73% 8 km
Mo, 22.04. 2:00 74% 16 km
So, 21.04. 20:00 47% 35 km
So, 21.04. 14:00 35% 21 km
So, 21.04. 8:00 80% 8 km
So, 21.04. 2:00 69% 20 km
Sa, 20.04. 20:00 46% 35 km
Ortszeit Relative Feuchte Sichtweite
Mo, 22.04. 16:00 31% 29 km
Mo, 22.04. 15:50 31% -
Mo, 22.04. 15:40 31% -
Mo, 22.04. 15:30 32% 25 km
Mo, 22.04. 15:20 32% -
Mo, 22.04. 15:10 32% -
Mo, 22.04. 15:00 36% 22 km
Mo, 22.04. 14:30 37% 22 km
Mo, 22.04. 14:00 37% 25 km
Mo, 22.04. 13:30 32% 19 km
Mo, 22.04. 13:00 35% 19 km
Ortszeit Niederschlagsmenge Niederschlagsart
Mo, 22.04. 14:00 0.0 l/m2 in 6 Std. -
Mo, 22.04. 8:00 0.0 l/m2 in 12 Std. -
Mo, 22.04. 2:00 0.0 l/m2 in 6 Std. -
So, 21.04. 20:00 0.0 l/m2 in 12 Std. -
So, 21.04. 14:00 0.0 l/m2 in 6 Std. -
So, 21.04. 8:00 0.0 l/m2 in 12 Std. -
So, 21.04. 2:00 0.0 l/m2 in 6 Std. -
Sa, 20.04. 20:00 0.0 l/m2 in 12 Std. -
Ortszeit Niederschlagsmenge Niederschlagsart
Mo, 22.04. 16:00 0.0 l/m2 in 1 Std. -
Mo, 22.04. 15:50 keine Meldung -
Mo, 22.04. 15:40 keine Meldung -
Mo, 22.04. 15:30 0.0 l/m2 in 1 Std. -
Mo, 22.04. 15:20 keine Meldung -
Mo, 22.04. 15:10 keine Meldung -
Mo, 22.04. 15:00 0.0 l/m2 in 1 Std. -
Mo, 22.04. 14:30 0.0 l/m2 in 1 Std. -
Mo, 22.04. 14:00 0.0 l/m2 in 1 Std. -
Mo, 22.04. 13:30 0.0 l/m2 in 1 Std. -
Mo, 22.04. 13:00 0.0 l/m2 in 1 Std. -
Ortszeit Stärke Spitze Richtung
km/h Bft. km/h Grad Sektor
Mo, 22.04. 14:00 18 3 43 110° O
Mo, 22.04. 8:00 0 0 14 - -
Mo, 22.04. 2:00 7 2 14 340° N
So, 21.04. 20:00 11 2 32 70° O
So, 21.04. 14:00 14 3 25 50° NO
So, 21.04. 8:00 4 1 11 300° NW
So, 21.04. 2:00 7 2 22 310° NW
Sa, 20.04. 20:00 15 3 26 20° N
Ortszeit Stärke Spitze Richtung
km/h Bft. km/h Grad Sektor
Mo, 22.04. 16:00 26 4 41 90° O
Mo, 22.04. 15:50 26 4 - 90° O
Mo, 22.04. 15:40 29 5 - 80° O
Mo, 22.04. 15:30 28 4 39 80° O
Mo, 22.04. 15:20 28 4 - 80° O
Mo, 22.04. 15:10 29 5 - 90° O
Mo, 22.04. 15:00 25 4 43 80° O
Mo, 22.04. 14:30 22 4 32 100° O
Mo, 22.04. 14:00 18 3 32 110° O
Mo, 22.04. 13:30 22 4 32 110° O
Mo, 22.04. 13:00 18 3 43 110° O
Ortszeit Untergrenze Bedeckung Gattung
total tief tief mittel hoch
Mo, 22.04. 14:00 9000 m 7/8 0/8 - - -
Mo, 22.04. 8:00 - 0/8 0/8 - - -
Mo, 22.04. 2:00 - 0/8 0/8 - - -
So, 21.04. 20:00 - 0/8 0/8 - - -
So, 21.04. 14:00 - 0/8 0/8 - - -
So, 21.04. 8:00 - 0/8 0/8 - - -
So, 21.04. 2:00 10500 m 8/8 0/8 - - -
Sa, 20.04. 20:00 - 0/8 0/8 - - -
Ortszeit Bedeckungsgrad in Achtel und Wolkenuntergrenze
Mo, 22.04. 16:00 8(9000m) 8(10500m)
Mo, 22.04. 15:50 8(9000m) 8(10500m)
Mo, 22.04. 15:40 8(9000m)
Mo, 22.04. 15:30 8(9000m)
Mo, 22.04. 15:20 8(9000m)
Mo, 22.04. 15:10 8(9000m)
Mo, 22.04. 15:00 8(9000m) 8(10500m)
Mo, 22.04. 14:30 3(9000m)
Mo, 22.04. 14:00 7(9000m)
Mo, 22.04. 13:30 5(9000m)
Mo, 22.04. 13:00 7(9000m)
Ortszeit Luftdruck NN (hPa) Tendenz (hPa in 3 Std.)
Mo, 22.04. 14:00 1011 - 2,0
Mo, 22.04. 8:00 1016 - 0,6
Mo, 22.04. 2:00 1018 - 0,7
So, 21.04. 20:00 1017 - 1,4
So, 21.04. 14:00 1021 - 2,3
So, 21.04. 8:00 1026 - 0,5
So, 21.04. 2:00 1027 - 1,1
Sa, 20.04. 20:00 1027 - 0,7
Ortszeit Luftdruck NN (hPa) Tendenz (hPa in 3 Std.)
Mo, 22.04. 16:00 1010 - 2,2
Mo, 22.04. 15:50 1010 keine Meldung
Mo, 22.04. 15:40 1010 keine Meldung
Mo, 22.04. 15:30 1010 - 2,2
Mo, 22.04. 15:20 1010 keine Meldung
Mo, 22.04. 15:10 1010 keine Meldung
Mo, 22.04. 15:00 1011 - 2,3
Mo, 22.04. 14:30 1011 - 2,1
Mo, 22.04. 14:00 1011 - 2,0
Mo, 22.04. 13:30 1012 - 1,9
Mo, 22.04. 13:00 1012 - 1,6
Ortszeit Schneehöhe (cm)
Mo, 22.04. 14:00 0
Mo, 22.04. 8:00 -
Mo, 22.04. 2:00 0
So, 21.04. 20:00 0
So, 21.04. 14:00 0
So, 21.04. 8:00 -
So, 21.04. 2:00 0
Sa, 20.04. 20:00 0
Ortszeit Schneehöhe (cm)
Mo, 22.04. 16:00 0
Mo, 22.04. 15:50 0
Mo, 22.04. 15:40 0
Mo, 22.04. 15:30 0
Mo, 22.04. 15:20 0
Mo, 22.04. 15:10 0
Mo, 22.04. 15:00 0
Mo, 22.04. 14:30 0
Mo, 22.04. 14:00 0
Mo, 22.04. 13:30 0
Mo, 22.04. 13:00 0
Link zu dieser Seite / Seite empfehlen

Das Wetter in ...